sensor_id;sensor_type;location;lat;lon;timestamp;P1;durP1;ratioP1;P2;durP2;ratioP2
63201;SDS011;49296;48.188;11.566;2023-04-15T00:02:16;7.15;;;3.15;;
63201;SDS011;49296;48.188;11.566;2023-04-15T00:04:44;6.57;;;3.28;;
63201;SDS011;49296;48.188;11.566;2023-04-15T00:07:11;8.10;;;3.88;;
63201;SDS011;49296;48.188;11.566;2023-04-15T00:09:37;6.80;;;3.47;;
63201;SDS011;49296;48.188;11.566;2023-04-15T00:12:04;8.18;;;3.88;;
63201;SDS011;49296;48.188;11.566;2023-04-15T00:14:32;8.23;;;4.15;;
63201;SDS011;49296;48.188;11.566;2023-04-15T00:16:59;7.88;;;3.85;;
63201;SDS011;49296;48.188;11.566;2023-04-15T00:19:28;8.00;;;3.70;;
63201;SDS011;49296;48.188;11.566;2023-04-15T00:21:55;9.02;;;4.25;;
63201;SDS011;49296;48.188;11.566;2023-04-15T00:24:21;7.45;;;4.18;;
63201;SDS011;49296;48.188;11.566;2023-04-15T00:26:48;10.50;;;3.95;;
63201;SDS011;49296;48.188;11.566;2023-04-15T00:29:15;7.35;;;3.70;;
63201;SDS011;49296;48.188;11.566;2023-04-15T00:31:42;9.13;;;3.95;;
63201;SDS011;49296;48.188;11.566;2023-04-15T00:34:09;6.45;;;3.80;;
63201;SDS011;49296;48.188;11.566;2023-04-15T00:36:38;9.07;;;4.22;;
63201;SDS011;49296;48.188;11.566;2023-04-15T00:39:04;7.15;;;4.25;;
63201;SDS011;49296;48.188;11.566;2023-04-15T00:41:31;7.75;;;4.35;;
63201;SDS011;49296;48.188;11.566;2023-04-15T00:43:58;8.52;;;4.97;;
63201;SDS011;49296;48.188;11.566;2023-04-15T00:46:27;9.90;;;4.50;;
63201;SDS011;49296;48.188;11.566;2023-04-15T00:48:55;9.23;;;4.47;;
63201;SDS011;49296;48.188;11.566;2023-04-15T00:51:22;7.28;;;4.05;;
63201;SDS011;49296;48.188;11.566;2023-04-15T00:53:50;7.10;;;4.15;;
63201;SDS011;49296;48.188;11.566;2023-04-15T00:56:17;7.25;;;4.50;;
63201;SDS011;49296;48.188;11.566;2023-04-15T00:58:48;7.65;;;4.43;;
63201;SDS011;49296;48.188;11.566;2023-04-15T01:01:16;8.02;;;4.38;;
63201;SDS011;49296;48.188;11.566;2023-04-15T01:03:46;9.00;;;4.75;;
63201;SDS011;49296;48.188;11.566;2023-04-15T01:06:13;8.50;;;4.45;;
63201;SDS011;49296;48.188;11.566;2023-04-15T01:08:40;7.65;;;4.70;;
63201;SDS011;49296;48.188;11.566;2023-04-15T01:11:08;10.38;;;4.78;;
63201;SDS011;49296;48.188;11.566;2023-04-15T01:13:37;10.00;;;4.78;;
63201;SDS011;49296;48.188;11.566;2023-04-15T01:16:05;8.18;;;4.68;;
63201;SDS011;49296;48.188;11.566;2023-04-15T01:18:32;9.00;;;4.82;;
63201;SDS011;49296;48.188;11.566;2023-04-15T01:21:00;7.38;;;5.05;;
63201;SDS011;49296;48.188;11.566;2023-04-15T01:23:27;8.30;;;4.40;;
63201;SDS011;49296;48.188;11.566;2023-04-15T01:25:56;8.80;;;5.38;;
63201;SDS011;49296;48.188;11.566;2023-04-15T01:28:24;10.05;;;5.00;;
63201;SDS011;49296;48.188;11.566;2023-04-15T01:31:03;8.90;;;4.45;;
63201;SDS011;49296;48.188;11.566;2023-04-15T01:33:32;10.57;;;5.63;;
63201;SDS011;49296;48.188;11.566;2023-04-15T01:35:59;8.70;;;5.18;;
63201;SDS011;49296;48.188;11.566;2023-04-15T01:38:26;8.02;;;4.72;;
63201;SDS011;49296;48.188;11.566;2023-04-15T01:40:53;9.38;;;5.45;;
63201;SDS011;49296;48.188;11.566;2023-04-15T01:43:21;7.88;;;4.55;;
63201;SDS011;49296;48.188;11.566;2023-04-15T01:45:48;9.82;;;5.30;;
63201;SDS011;49296;48.188;11.566;2023-04-15T01:48:15;8.25;;;4.72;;
63201;SDS011;49296;48.188;11.566;2023-04-15T01:50:42;8.00;;;5.13;;
63201;SDS011;49296;48.188;11.566;2023-04-15T01:53:09;8.95;;;5.40;;
63201;SDS011;49296;48.188;11.566;2023-04-15T01:55:35;7.95;;;4.82;;
63201;SDS011;49296;48.188;11.566;2023-04-15T01:58:02;8.63;;;4.80;;
63201;SDS011;49296;48.188;11.566;2023-04-15T02:00:30;9.40;;;5.00;;
63201;SDS011;49296;48.188;11.566;2023-04-15T02:02:57;10.20;;;5.13;;
63201;SDS011;49296;48.188;11.566;2023-04-15T02:05:24;9.57;;;4.80;;
63201;SDS011;49296;48.188;11.566;2023-04-15T02:07:51;9.23;;;4.75;;
63201;SDS011;49296;48.188;11.566;2023-04-15T02:10:18;9.05;;;4.90;;
63201;SDS011;49296;48.188;11.566;2023-04-15T02:12:45;8.85;;;5.20;;
63201;SDS011;49296;48.188;11.566;2023-04-15T02:15:12;7.65;;;4.93;;
63201;SDS011;49296;48.188;11.566;2023-04-15T02:17:41;9.48;;;5.25;;
63201;SDS011;49296;48.188;11.566;2023-04-15T02:20:10;10.98;;;5.63;;
63201;SDS011;49296;48.188;11.566;2023-04-15T02:22:37;9.00;;;4.90;;
63201;SDS011;49296;48.188;11.566;2023-04-15T02:25:04;9.23;;;5.03;;
63201;SDS011;49296;48.188;11.566;2023-04-15T02:27:32;10.40;;;5.13;;
63201;SDS011;49296;48.188;11.566;2023-04-15T02:29:59;9.65;;;5.07;;
63201;SDS011;49296;48.188;11.566;2023-04-15T02:32:26;8.00;;;4.68;;
63201;SDS011;49296;48.188;11.566;2023-04-15T02:34:54;10.57;;;4.85;;
63201;SDS011;49296;48.188;11.566;2023-04-15T02:37:21;8.80;;;5.13;;
63201;SDS011;49296;48.188;11.566;2023-04-15T02:39:48;9.35;;;4.60;;
63201;SDS011;49296;48.188;11.566;2023-04-15T02:42:15;10.38;;;5.78;;
63201;SDS011;49296;48.188;11.566;2023-04-15T02:44:42;12.27;;;5.82;;
63201;SDS011;49296;48.188;11.566;2023-04-15T02:47:09;10.55;;;5.05;;
63201;SDS011;49296;48.188;11.566;2023-04-15T02:49:36;11.45;;;5.28;;
63201;SDS011;49296;48.188;11.566;2023-04-15T02:52:05;8.07;;;4.88;;
63201;SDS011;49296;48.188;11.566;2023-04-15T02:54:32;8.75;;;4.70;;
63201;SDS011;49296;48.188;11.566;2023-04-15T02:56:59;9.18;;;4.93;;
63201;SDS011;49296;48.188;11.566;2023-04-15T02:59:26;8.60;;;4.90;;
63201;SDS011;49296;48.188;11.566;2023-04-15T03:01:52;8.80;;;5.00;;
63201;SDS011;49296;48.188;11.566;2023-04-15T03:04:20;8.25;;;4.45;;
63201;SDS011;49296;48.188;11.566;2023-04-15T03:06:47;7.93;;;4.75;;
63201;SDS011;49296;48.188;11.566;2023-04-15T03:09:15;8.52;;;4.60;;
63201;SDS011;49296;48.188;11.566;2023-04-15T03:11:42;10.60;;;4.97;;
63201;SDS011;49296;48.188;11.566;2023-04-15T03:14:09;8.38;;;4.70;;
63201;SDS011;49296;48.188;11.566;2023-04-15T03:16:36;9.95;;;5.00;;
63201;SDS011;49296;48.188;11.566;2023-04-15T03:19:03;7.95;;;4.75;;
63201;SDS011;49296;48.188;11.566;2023-04-15T03:21:29;8.65;;;5.13;;
63201;SDS011;49296;48.188;11.566;2023-04-15T03:23:56;10.07;;;5.05;;
63201;SDS011;49296;48.188;11.566;2023-04-15T03:26:25;9.85;;;5.25;;
63201;SDS011;49296;48.188;11.566;2023-04-15T03:28:53;8.90;;;5.47;;
63201;SDS011;49296;48.188;11.566;2023-04-15T03:31:20;9.10;;;4.90;;
63201;SDS011;49296;48.188;11.566;2023-04-15T03:33:47;9.25;;;5.10;;
63201;SDS011;49296;48.188;11.566;2023-04-15T03:36:14;8.93;;;5.10;;
63201;SDS011;49296;48.188;11.566;2023-04-15T03:38:41;8.68;;;4.70;;
63201;SDS011;49296;48.188;11.566;2023-04-15T03:41:08;8.77;;;4.88;;
63201;SDS011;49296;48.188;11.566;2023-04-15T03:43:36;8.63;;;4.47;;
63201;SDS011;49296;48.188;11.566;2023-04-15T03:46:03;8.50;;;4.40;;
63201;SDS011;49296;48.188;11.566;2023-04-15T03:48:30;11.80;;;5.18;;
63201;SDS011;49296;48.188;11.566;2023-04-15T03:50:57;8.95;;;4.65;;
63201;SDS011;49296;48.188;11.566;2023-04-15T03:53:24;8.98;;;4.82;;
63201;SDS011;49296;48.188;11.566;2023-04-15T03:55:51;9.15;;;5.15;;
63201;SDS011;49296;48.188;11.566;2023-04-15T03:58:18;9.10;;;5.22;;
63201;SDS011;49296;48.188;11.566;2023-04-15T04:00:46;10.65;;;5.00;;
63201;SDS011;49296;48.188;11.566;2023-04-15T04:03:12;9.13;;;4.75;;
63201;SDS011;49296;48.188;11.566;2023-04-15T04:05:39;10.25;;;5.13;;
63201;SDS011;49296;48.188;11.566;2023-04-15T04:08:08;10.60;;;5.00;;
63201;SDS011;49296;48.188;11.566;2023-04-15T04:10:37;10.13;;;4.80;;
63201;SDS011;49296;48.188;11.566;2023-04-15T04:13:04;10.80;;;5.00;;
63201;SDS011;49296;48.188;11.566;2023-04-15T04:15:32;9.30;;;4.53;;
63201;SDS011;49296;48.188;11.566;2023-04-15T04:18:00;7.18;;;4.55;;
63201;SDS011;49296;48.188;11.566;2023-04-15T04:20:27;9.02;;;4.68;;
63201;SDS011;49296;48.188;11.566;2023-04-15T04:22:56;9.40;;;5.05;;
63201;SDS011;49296;48.188;11.566;2023-04-15T04:25:22;9.18;;;4.82;;
63201;SDS011;49296;48.188;11.566;2023-04-15T04:27:49;11.30;;;4.88;;
63201;SDS011;49296;48.188;11.566;2023-04-15T04:30:16;7.18;;;4.72;;
63201;SDS011;49296;48.188;11.566;2023-04-15T04:32:43;9.77;;;4.72;;
63201;SDS011;49296;48.188;11.566;2023-04-15T04:35:12;9.52;;;4.53;;
63201;SDS011;49296;48.188;11.566;2023-04-15T04:37:39;5.93;;;4.03;;
63201;SDS011;49296;48.188;11.566;2023-04-15T04:40:06;7.22;;;4.53;;
63201;SDS011;49296;48.188;11.566;2023-04-15T04:42:34;9.40;;;4.53;;
63201;SDS011;49296;48.188;11.566;2023-04-15T04:45:01;7.97;;;4.07;;
63201;SDS011;49296;48.188;11.566;2023-04-15T04:47:28;9.25;;;4.07;;
63201;SDS011;49296;48.188;11.566;2023-04-15T04:49:55;6.43;;;3.85;;
63201;SDS011;49296;48.188;11.566;2023-04-15T04:52:23;8.57;;;4.65;;
63201;SDS011;49296;48.188;11.566;2023-04-15T04:54:50;11.15;;;4.70;;
63201;SDS011;49296;48.188;11.566;2023-04-15T04:57:17;7.85;;;4.35;;
63201;SDS011;49296;48.188;11.566;2023-04-15T04:59:44;8.73;;;4.03;;
63201;SDS011;49296;48.188;11.566;2023-04-15T05:02:11;7.00;;;4.78;;
63201;SDS011;49296;48.188;11.566;2023-04-15T05:04:38;6.93;;;3.58;;
63201;SDS011;49296;48.188;11.566;2023-04-15T05:07:05;8.15;;;3.90;;
63201;SDS011;49296;48.188;11.566;2023-04-15T05:09:34;7.80;;;3.88;;
63201;SDS011;49296;48.188;11.566;2023-04-15T05:12:01;9.02;;;3.53;;
63201;SDS011;49296;48.188;11.566;2023-04-15T05:14:28;6.93;;;3.20;;
63201;SDS011;49296;48.188;11.566;2023-04-15T05:16:55;6.85;;;3.83;;
63201;SDS011;49296;48.188;11.566;2023-04-15T05:19:22;6.93;;;4.13;;
63201;SDS011;49296;48.188;11.566;2023-04-15T05:21:48;8.98;;;3.97;;
63201;SDS011;49296;48.188;11.566;2023-04-15T05:24:15;9.00;;;3.78;;
63201;SDS011;49296;48.188;11.566;2023-04-15T05:26:43;7.07;;;3.17;;
63201;SDS011;49296;48.188;11.566;2023-04-15T05:29:10;7.85;;;3.30;;
63201;SDS011;49296;48.188;11.566;2023-04-15T05:31:37;6.70;;;3.25;;
63201;SDS011;49296;48.188;11.566;2023-04-15T05:34:04;5.07;;;2.97;;
63201;SDS011;49296;48.188;11.566;2023-04-15T05:36:31;6.68;;;3.45;;
63201;SDS011;49296;48.188;11.566;2023-04-15T05:38:58;10.68;;;4.40;;
63201;SDS011;49296;48.188;11.566;2023-04-15T05:41:24;6.05;;;3.25;;
63201;SDS011;49296;48.188;11.566;2023-04-15T05:43:53;8.23;;;3.13;;
63201;SDS011;49296;48.188;11.566;2023-04-15T05:46:19;6.15;;;3.08;;
63201;SDS011;49296;48.188;11.566;2023-04-15T05:48:46;7.93;;;3.33;;
63201;SDS011;49296;48.188;11.566;2023-04-15T05:51:13;7.55;;;3.38;;
63201;SDS011;49296;48.188;11.566;2023-04-15T05:53:41;6.68;;;2.88;;
63201;SDS011;49296;48.188;11.566;2023-04-15T05:56:07;7.18;;;3.10;;
63201;SDS011;49296;48.188;11.566;2023-04-15T05:58:34;6.40;;;3.38;;
63201;SDS011;49296;48.188;11.566;2023-04-15T06:01:03;7.40;;;3.20;;
63201;SDS011;49296;48.188;11.566;2023-04-15T06:03:29;7.53;;;3.20;;
63201;SDS011;49296;48.188;11.566;2023-04-15T06:05:56;5.97;;;2.83;;
63201;SDS011;49296;48.188;11.566;2023-04-15T06:08:23;7.55;;;3.08;;
63201;SDS011;49296;48.188;11.566;2023-04-15T06:10:50;5.18;;;3.20;;
63201;SDS011;49296;48.188;11.566;2023-04-15T06:13:17;4.70;;;2.70;;
63201;SDS011;49296;48.188;11.566;2023-04-15T06:15:43;7.07;;;2.72;;
63201;SDS011;49296;48.188;11.566;2023-04-15T06:18:12;6.15;;;3.20;;
63201;SDS011;49296;48.188;11.566;2023-04-15T06:20:38;6.97;;;2.88;;
63201;SDS011;49296;48.188;11.566;2023-04-15T06:23:05;6.32;;;3.03;;
63201;SDS011;49296;48.188;11.566;2023-04-15T06:25:32;5.68;;;2.70;;
63201;SDS011;49296;48.188;11.566;2023-04-15T06:27:59;6.88;;;2.45;;
63201;SDS011;49296;48.188;11.566;2023-04-15T06:30:26;8.48;;;2.72;;
63201;SDS011;49296;48.188;11.566;2023-04-15T06:32:53;4.13;;;2.10;;
63201;SDS011;49296;48.188;11.566;2023-04-15T06:35:22;5.05;;;2.13;;
63201;SDS011;49296;48.188;11.566;2023-04-15T06:37:49;7.78;;;2.70;;
63201;SDS011;49296;48.188;11.566;2023-04-15T06:40:16;7.88;;;3.15;;
63201;SDS011;49296;48.188;11.566;2023-04-15T06:42:42;4.90;;;2.33;;
63201;SDS011;49296;48.188;11.566;2023-04-15T06:45:10;8.70;;;2.80;;
63201;SDS011;49296;48.188;11.566;2023-04-15T06:47:37;7.07;;;2.53;;
63201;SDS011;49296;48.188;11.566;2023-04-15T06:50:04;4.90;;;2.28;;
63201;SDS011;49296;48.188;11.566;2023-04-15T06:52:33;6.90;;;2.55;;
63201;SDS011;49296;48.188;11.566;2023-04-15T06:54:59;5.40;;;2.30;;
63201;SDS011;49296;48.188;11.566;2023-04-15T06:57:26;5.13;;;2.40;;
63201;SDS011;49296;48.188;11.566;2023-04-15T06:59:53;6.72;;;2.83;;
63201;SDS011;49296;48.188;11.566;2023-04-15T07:02:21;5.00;;;2.58;;
63201;SDS011;49296;48.188;11.566;2023-04-15T07:04:48;6.55;;;2.97;;
63201;SDS011;49296;48.188;11.566;2023-04-15T07:07:15;5.30;;;2.47;;
63201;SDS011;49296;48.188;11.566;2023-04-15T07:09:44;5.10;;;2.20;;
63201;SDS011;49296;48.188;11.566;2023-04-15T07:12:11;5.95;;;3.30;;
63201;SDS011;49296;48.188;11.566;2023-04-15T07:14:38;6.57;;;2.97;;
63201;SDS011;49296;48.188;11.566;2023-04-15T07:17:05;6.65;;;2.53;;
63201;SDS011;49296;48.188;11.566;2023-04-15T07:19:32;7.43;;;2.72;;
63201;SDS011;49296;48.188;11.566;2023-04-15T07:21:59;7.78;;;2.60;;
63201;SDS011;49296;48.188;11.566;2023-04-15T07:24:26;4.63;;;2.45;;
63201;SDS011;49296;48.188;11.566;2023-04-15T07:26:54;5.30;;;2.22;;
63201;SDS011;49296;48.188;11.566;2023-04-15T07:29:21;5.07;;;2.30;;
63201;SDS011;49296;48.188;11.566;2023-04-15T07:31:48;7.53;;;2.40;;
63201;SDS011;49296;48.188;11.566;2023-04-15T07:34:16;5.05;;;2.17;;
63201;SDS011;49296;48.188;11.566;2023-04-15T07:36:44;4.88;;;2.20;;
63201;SDS011;49296;48.188;11.566;2023-04-15T07:39:14;4.40;;;1.90;;
63201;SDS011;49296;48.188;11.566;2023-04-15T07:41:41;4.63;;;2.25;;
63201;SDS011;49296;48.188;11.566;2023-04-15T07:44:10;6.03;;;2.13;;
63201;SDS011;49296;48.188;11.566;2023-04-15T07:46:37;7.00;;;2.10;;
63201;SDS011;49296;48.188;11.566;2023-04-15T07:49:04;8.40;;;2.30;;
63201;SDS011;49296;48.188;11.566;2023-04-15T07:51:31;6.05;;;2.53;;
63201;SDS011;49296;48.188;11.566;2023-04-15T07:53:58;8.68;;;2.63;;
63201;SDS011;49296;48.188;11.566;2023-04-15T07:56:25;6.13;;;2.42;;
63201;SDS011;49296;48.188;11.566;2023-04-15T07:58:52;5.78;;;2.30;;
63201;SDS011;49296;48.188;11.566;2023-04-15T08:01:20;5.53;;;2.28;;
63201;SDS011;49296;48.188;11.566;2023-04-15T08:03:47;5.85;;;2.30;;
63201;SDS011;49296;48.188;11.566;2023-04-15T08:06:14;7.20;;;3.20;;
63201;SDS011;49296;48.188;11.566;2023-04-15T08:08:40;6.00;;;2.50;;
63201;SDS011;49296;48.188;11.566;2023-04-15T08:11:08;7.07;;;2.20;;
63201;SDS011;49296;48.188;11.566;2023-04-15T08:13:34;4.60;;;2.53;;
63201;SDS011;49296;48.188;11.566;2023-04-15T08:16:12;5.15;;;2.40;;
63201;SDS011;49296;48.188;11.566;2023-04-15T08:21:10;6.13;;;2.50;;
63201;SDS011;49296;48.188;11.566;2023-04-15T08:23:37;6.78;;;2.42;;
63201;SDS011;49296;48.188;11.566;2023-04-15T08:26:04;4.95;;;2.58;;
63201;SDS011;49296;48.188;11.566;2023-04-15T08:28:31;4.78;;;2.22;;
63201;SDS011;49296;48.188;11.566;2023-04-15T08:30:58;4.38;;;2.47;;
63201;SDS011;49296;48.188;11.566;2023-04-15T08:33:25;6.05;;;2.60;;
63201;SDS011;49296;48.188;11.566;2023-04-15T08:35:54;7.88;;;2.95;;
63201;SDS011;49296;48.188;11.566;2023-04-15T08:38:21;6.32;;;2.78;;
63201;SDS011;49296;48.188;11.566;2023-04-15T08:40:48;6.18;;;2.70;;
63201;SDS011;49296;48.188;11.566;2023-04-15T08:43:17;5.43;;;2.80;;
63201;SDS011;49296;48.188;11.566;2023-04-15T08:45:49;5.95;;;2.97;;
63201;SDS011;49296;48.188;11.566;2023-04-15T08:48:17;6.22;;;2.70;;
63201;SDS011;49296;48.188;11.566;2023-04-15T08:50:45;4.68;;;2.63;;
63201;SDS011;49296;48.188;11.566;2023-04-15T08:53:14;4.32;;;2.80;;
63201;SDS011;49296;48.188;11.566;2023-04-15T08:55:42;6.63;;;2.60;;
63201;SDS011;49296;48.188;11.566;2023-04-15T08:58:11;5.35;;;2.60;;
63201;SDS011;49296;48.188;11.566;2023-04-15T09:00:40;5.80;;;2.70;;
63201;SDS011;49296;48.188;11.566;2023-04-15T09:03:08;5.95;;;2.90;;
63201;SDS011;49296;48.188;11.566;2023-04-15T09:05:35;7.25;;;2.42;;
63201;SDS011;49296;48.188;11.566;2023-04-15T09:08:02;5.78;;;2.58;;
63201;SDS011;49296;48.188;11.566;2023-04-15T09:10:32;9.07;;;3.38;;
63201;SDS011;49296;48.188;11.566;2023-04-15T09:12:59;7.68;;;3.13;;
63201;SDS011;49296;48.188;11.566;2023-04-15T09:15:27;6.78;;;2.97;;
63201;SDS011;49296;48.188;11.566;2023-04-15T09:17:54;6.75;;;3.28;;
63201;SDS011;49296;48.188;11.566;2023-04-15T09:20:21;7.85;;;3.53;;
63201;SDS011;49296;48.188;11.566;2023-04-15T09:22:49;7.30;;;2.90;;
63201;SDS011;49296;48.188;11.566;2023-04-15T09:25:27;5.82;;;2.72;;
63201;SDS011;49296;48.188;11.566;2023-04-15T09:27:56;6.82;;;3.35;;
63201;SDS011;49296;48.188;11.566;2023-04-15T09:30:24;6.20;;;3.33;;
63201;SDS011;49296;48.188;11.566;2023-04-15T09:32:53;8.98;;;4.78;;
63201;SDS011;49296;48.188;11.566;2023-04-15T09:35:21;7.57;;;3.28;;
63201;SDS011;49296;48.188;11.566;2023-04-15T09:37:50;7.32;;;3.03;;
63201;SDS011;49296;48.188;11.566;2023-04-15T09:40:29;5.25;;;2.90;;
63201;SDS011;49296;48.188;11.566;2023-04-15T09:42:58;6.78;;;2.95;;
63201;SDS011;49296;48.188;11.566;2023-04-15T09:45:27;8.80;;;3.38;;
63201;SDS011;49296;48.188;11.566;2023-04-15T09:47:54;7.45;;;3.13;;
63201;SDS011;49296;48.188;11.566;2023-04-15T09:50:23;10.90;;;3.60;;
63201;SDS011;49296;48.188;11.566;2023-04-15T09:52:53;6.30;;;3.30;;
63201;SDS011;49296;48.188;11.566;2023-04-15T09:55:20;6.93;;;3.60;;
63201;SDS011;49296;48.188;11.566;2023-04-15T09:57:47;8.35;;;3.78;;
63201;SDS011;49296;48.188;11.566;2023-04-15T10:00:16;6.63;;;3.17;;
63201;SDS011;49296;48.188;11.566;2023-04-15T10:02:43;7.53;;;4.40;;
63201;SDS011;49296;48.188;11.566;2023-04-15T10:05:12;7.53;;;3.63;;
63201;SDS011;49296;48.188;11.566;2023-04-15T10:07:40;7.63;;;4.07;;
63201;SDS011;49296;48.188;11.566;2023-04-15T10:10:08;9.25;;;3.70;;
63201;SDS011;49296;48.188;11.566;2023-04-15T10:12:36;6.68;;;3.78;;
63201;SDS011;49296;48.188;11.566;2023-04-15T10:15:04;7.15;;;3.65;;
63201;SDS011;49296;48.188;11.566;2023-04-15T10:17:33;8.20;;;4.30;;
63201;SDS011;49296;48.188;11.566;2023-04-15T10:20:02;7.82;;;3.80;;
63201;SDS011;49296;48.188;11.566;2023-04-15T10:22:30;8.07;;;3.53;;
63201;SDS011;49296;48.188;11.566;2023-04-15T10:24:57;8.25;;;4.60;;
63201;SDS011;49296;48.188;11.566;2023-04-15T10:27:25;8.07;;;4.10;;
63201;SDS011;49296;48.188;11.566;2023-04-15T10:29:53;7.95;;;4.18;;
63201;SDS011;49296;48.188;11.566;2023-04-15T10:32:20;7.13;;;4.13;;
63201;SDS011;49296;48.188;11.566;2023-04-15T10:34:50;8.18;;;4.15;;
63201;SDS011;49296;48.188;11.566;2023-04-15T10:37:19;7.82;;;4.72;;
63201;SDS011;49296;48.188;11.566;2023-04-15T10:39:47;9.00;;;4.57;;
63201;SDS011;49296;48.188;11.566;2023-04-15T10:42:15;7.93;;;4.63;;
63201;SDS011;49296;48.188;11.566;2023-04-15T10:44:44;7.93;;;4.15;;
63201;SDS011;49296;48.188;11.566;2023-04-15T10:47:14;9.32;;;5.05;;
63201;SDS011;49296;48.188;11.566;2023-04-15T10:49:44;8.40;;;4.63;;
63201;SDS011;49296;48.188;11.566;2023-04-15T10:52:15;12.15;;;4.88;;
63201;SDS011;49296;48.188;11.566;2023-04-15T10:54:43;8.53;;;4.93;;
63201;SDS011;49296;48.188;11.566;2023-04-15T10:57:14;8.88;;;4.65;;
63201;SDS011;49296;48.188;11.566;2023-04-15T10:59:59;9.55;;;5.40;;
63201;SDS011;49296;48.188;11.566;2023-04-15T11:02:40;8.82;;;5.03;;
63201;SDS011;49296;48.188;11.566;2023-04-15T11:05:08;9.23;;;4.95;;
63201;SDS011;49296;48.188;11.566;2023-04-15T11:07:38;8.38;;;5.22;;
63201;SDS011;49296;48.188;11.566;2023-04-15T11:13:14;9.35;;;4.93;;
63201;SDS011;49296;48.188;11.566;2023-04-15T11:15:43;8.38;;;4.65;;
63201;SDS011;49296;48.188;11.566;2023-04-15T11:18:11;9.18;;;4.50;;
63201;SDS011;49296;48.188;11.566;2023-04-15T11:20:39;8.82;;;4.97;;
63201;SDS011;49296;48.188;11.566;2023-04-15T11:23:10;9.68;;;5.10;;
63201;SDS011;49296;48.188;11.566;2023-04-15T11:25:37;8.10;;;4.97;;
63201;SDS011;49296;48.188;11.566;2023-04-15T11:28:04;9.57;;;5.38;;
63201;SDS011;49296;48.188;11.566;2023-04-15T11:30:33;7.40;;;4.72;;
63201;SDS011;49296;48.188;11.566;2023-04-15T11:33:01;8.57;;;5.60;;
63201;SDS011;49296;48.188;11.566;2023-04-15T11:35:29;9.02;;;5.15;;
63201;SDS011;49296;48.188;11.566;2023-04-15T11:37:56;10.43;;;5.47;;
63201;SDS011;49296;48.188;11.566;2023-04-15T11:40:25;10.50;;;5.47;;
63201;SDS011;49296;48.188;11.566;2023-04-15T11:43:02;10.00;;;6.20;;
63201;SDS011;49296;48.188;11.566;2023-04-15T11:45:30;12.90;;;6.03;;
63201;SDS011;49296;48.188;11.566;2023-04-15T11:48:03;11.88;;;6.18;;
63201;SDS011;49296;48.188;11.566;2023-04-15T11:50:31;10.57;;;5.85;;
63201;SDS011;49296;48.188;11.566;2023-04-15T11:52:59;10.35;;;5.90;;
63201;SDS011;49296;48.188;11.566;2023-04-15T11:55:28;11.73;;;5.82;;
63201;SDS011;49296;48.188;11.566;2023-04-15T11:58:06;9.35;;;5.55;;
63201;SDS011;49296;48.188;11.566;2023-04-15T12:00:34;9.05;;;5.25;;
63201;SDS011;49296;48.188;11.566;2023-04-15T12:06:12;8.85;;;5.18;;
63201;SDS011;49296;48.188;11.566;2023-04-15T12:11:41;10.95;;;5.57;;
63201;SDS011;49296;48.188;11.566;2023-04-15T12:14:19;10.02;;;5.20;;
63201;SDS011;49296;48.188;11.566;2023-04-15T12:16:49;15.02;;;7.40;;
63201;SDS011;49296;48.188;11.566;2023-04-15T12:19:21;9.65;;;4.78;;
63201;SDS011;49296;48.188;11.566;2023-04-15T12:21:49;6.47;;;4.05;;
63201;SDS011;49296;48.188;11.566;2023-04-15T12:24:19;7.63;;;4.43;;
63201;SDS011;49296;48.188;11.566;2023-04-15T12:26:48;8.05;;;4.55;;
63201;SDS011;49296;48.188;11.566;2023-04-15T12:29:16;7.50;;;4.32;;
63201;SDS011;49296;48.188;11.566;2023-04-15T12:31:47;5.85;;;4.05;;
63201;SDS011;49296;48.188;11.566;2023-04-15T12:34:15;7.72;;;3.97;;
63201;SDS011;49296;48.188;11.566;2023-04-15T12:36:44;6.13;;;3.92;;
63201;SDS011;49296;48.188;11.566;2023-04-15T12:39:11;6.95;;;3.58;;
63201;SDS011;49296;48.188;11.566;2023-04-15T12:41:38;5.53;;;3.20;;
63201;SDS011;49296;48.188;11.566;2023-04-15T12:44:06;6.63;;;3.45;;
63201;SDS011;49296;48.188;11.566;2023-04-15T12:46:33;6.53;;;3.00;;
63201;SDS011;49296;48.188;11.566;2023-04-15T12:49:00;6.50;;;2.72;;
63201;SDS011;49296;48.188;11.566;2023-04-15T12:51:27;11.40;;;5.93;;
63201;SDS011;49296;48.188;11.566;2023-04-15T12:53:56;8.85;;;4.75;;
63201;SDS011;49296;48.188;11.566;2023-04-15T12:56:22;5.18;;;3.38;;
63201;SDS011;49296;48.188;11.566;2023-04-15T12:58:49;6.15;;;3.50;;
63201;SDS011;49296;48.188;11.566;2023-04-15T13:01:18;9.43;;;4.53;;
63201;SDS011;49296;48.188;11.566;2023-04-15T13:03:44;6.45;;;3.65;;
63201;SDS011;49296;48.188;11.566;2023-04-15T13:06:12;8.73;;;3.75;;
63201;SDS011;49296;48.188;11.566;2023-04-15T13:08:38;8.43;;;4.28;;
63201;SDS011;49296;48.188;11.566;2023-04-15T13:11:05;9.57;;;4.20;;
63201;SDS011;49296;48.188;11.566;2023-04-15T13:13:32;7.88;;;4.90;;
63201;SDS011;49296;48.188;11.566;2023-04-15T13:15:59;6.85;;;4.10;;
63201;SDS011;49296;48.188;11.566;2023-04-15T13:18:26;9.05;;;4.53;;
63201;SDS011;49296;48.188;11.566;2023-04-15T13:20:55;9.10;;;4.97;;
63201;SDS011;49296;48.188;11.566;2023-04-15T13:23:21;7.28;;;4.32;;
63201;SDS011;49296;48.188;11.566;2023-04-15T13:25:48;7.13;;;5.03;;
63201;SDS011;49296;48.188;11.566;2023-04-15T13:28:15;7.82;;;4.90;;
63201;SDS011;49296;48.188;11.566;2023-04-15T13:30:42;8.55;;;4.47;;
63201;SDS011;49296;48.188;11.566;2023-04-15T13:33:10;10.98;;;5.10;;
63201;SDS011;49296;48.188;11.566;2023-04-15T13:35:38;8.13;;;5.70;;
63201;SDS011;49296;48.188;11.566;2023-04-15T13:38:05;8.80;;;5.10;;
63201;SDS011;49296;48.188;11.566;2023-04-15T13:40:31;9.48;;;5.28;;
63201;SDS011;49296;48.188;11.566;2023-04-15T13:42:58;7.80;;;4.65;;
63201;SDS011;49296;48.188;11.566;2023-04-15T13:45:25;8.38;;;4.90;;
63201;SDS011;49296;48.188;11.566;2023-04-15T13:47:51;11.13;;;5.10;;
63201;SDS011;49296;48.188;11.566;2023-04-15T13:50:18;8.65;;;5.57;;
63201;SDS011;49296;48.188;11.566;2023-04-15T13:52:46;8.25;;;4.80;;
63201;SDS011;49296;48.188;11.566;2023-04-15T13:55:13;9.13;;;5.35;;
63201;SDS011;49296;48.188;11.566;2023-04-15T13:57:40;10.40;;;5.32;;
63201;SDS011;49296;48.188;11.566;2023-04-15T14:00:07;6.53;;;4.70;;
63201;SDS011;49296;48.188;11.566;2023-04-15T14:02:34;8.55;;;4.93;;
63201;SDS011;49296;48.188;11.566;2023-04-15T14:05:01;11.45;;;4.80;;
63201;SDS011;49296;48.188;11.566;2023-04-15T14:07:28;6.95;;;4.70;;
63201;SDS011;49296;48.188;11.566;2023-04-15T14:09:56;7.95;;;4.15;;
63201;SDS011;49296;48.188;11.566;2023-04-15T14:12:22;7.63;;;4.40;;
63201;SDS011;49296;48.188;11.566;2023-04-15T14:14:49;7.30;;;3.70;;
63201;SDS011;49296;48.188;11.566;2023-04-15T14:17:16;5.45;;;3.47;;
63201;SDS011;49296;48.188;11.566;2023-04-15T14:19:42;5.72;;;3.17;;
63201;SDS011;49296;48.188;11.566;2023-04-15T14:22:09;10.40;;;5.85;;
63201;SDS011;49296;48.188;11.566;2023-04-15T14:24:37;7.93;;;3.85;;
63201;SDS011;49296;48.188;11.566;2023-04-15T14:27:05;7.78;;;3.67;;
63201;SDS011;49296;48.188;11.566;2023-04-15T14:29:32;6.28;;;3.60;;
63201;SDS011;49296;48.188;11.566;2023-04-15T14:31:59;7.03;;;3.80;;
63201;SDS011;49296;48.188;11.566;2023-04-15T14:34:26;6.57;;;4.05;;
63201;SDS011;49296;48.188;11.566;2023-04-15T14:36:52;9.27;;;4.70;;
63201;SDS011;49296;48.188;11.566;2023-04-15T14:39:19;7.15;;;4.47;;
63201;SDS011;49296;48.188;11.566;2023-04-15T14:41:46;6.78;;;4.35;;
63201;SDS011;49296;48.188;11.566;2023-04-15T14:44:14;6.80;;;4.38;;
63201;SDS011;49296;48.188;11.566;2023-04-15T14:46:41;7.10;;;4.75;;
63201;SDS011;49296;48.188;11.566;2023-04-15T14:49:07;8.20;;;4.10;;